Time;durP1;ratioP1;P1;durP2;ratioP2;P2;SDS_P1;SDS_P2;PMS_P1;PMS_P2;Temp;Humidity;BMP_temperature;BMP_pressure;BME280_temperature;BME280_humidity;BME280_pressure;Samples;Min_cycle;Max_cycle;Signal;HPM_P1;HPM_P2
2021/10/21 00:01:46;;;;;;;14.38;8.20;;;;;;;15.34;62.33;99444.77;1687205;83;26537;-84
2021/10/21 00:04:13;;;;;;;13.68;7.50;;;;;;;15.32;62.29;99444.20;1671099;82;25899;-84
2021/10/21 00:06:40;;;;;;;13.03;8.20;;;;;;;15.30;62.35;99456.29;1698307;82;25842;-84
2021/10/21 00:09:07;;;;;;;12.75;8.20;;;;;;;15.29;62.40;99450.63;1736324;82;27613;-84
2021/10/21 00:11:35;;;;;;;11.22;7.45;;;;;;;15.27;62.44;99442.75;1740557;82;25855;-84
2021/10/21 00:14:03;;;;;;;13.68;8.15;;;;;;;15.28;62.41;99443.58;1689933;82;26386;-85
2021/10/21 00:16:30;;;;;;;14.53;7.75;;;;;;;15.26;62.52;99430.87;1709205;82;26083;-84
2021/10/21 00:18:57;;;;;;;10.98;8.43;;;;;;;15.26;62.33;99432.22;1725079;82;25980;-84
2021/10/21 00:21:24;;;;;;;13.25;7.97;;;;;;;15.23;62.52;99436.73;1697371;82;27662;-84
2021/10/21 00:23:51;;;;;;;14.70;8.03;;;;;;;15.19;62.59;99432.38;1663588;82;25853;-84
2021/10/21 00:26:18;;;;;;;13.83;7.92;;;;;;;15.17;62.55;99429.11;1701188;82;25829;-84
2021/10/21 00:28:45;;;;;;;11.70;7.70;;;;;;;15.13;62.70;99432.01;1720169;82;26594;-84
2021/10/21 00:31:13;;;;;;;12.68;7.20;;;;;;;15.10;62.73;99434.36;1698914;82;26567;-84
2021/10/21 00:33:40;;;;;;;11.33;7.97;;;;;;;15.08;62.79;99431.09;1666093;82;27598;-84
2021/10/21 00:36:08;;;;;;;13.45;8.25;;;;;;;15.06;62.88;99421.08;1698534;82;26622;-84
2021/10/21 00:38:35;;;;;;;19.25;8.93;;;;;;;15.05;63.00;99420.80;1700042;84;25790;-84
2021/10/21 00:41:02;;;;;;;13.68;7.72;;;;;;;15.03;62.89;99419.71;1706377;82;25560;-84
2021/10/21 00:43:39;;;;;;;13.98;7.95;;;;;;;15.03;63.04;99422.93;1647568;82;25628;-84
2021/10/21 00:46:09;;;;;;;10.93;7.87;;;;;;;15.03;63.10;99419.71;1671528;82;28167;-84
2021/10/21 00:48:38;;;;;;;12.18;7.47;;;;;;;15.01;63.13;99410.22;1741459;82;25901;-84
2021/10/21 00:51:08;;;;;;;12.78;7.50;;;;;;;15.01;63.18;99408.88;1742987;82;25891;-84
2021/10/21 00:53:36;;;;;;;13.65;8.10;;;;;;;15.00;63.23;99408.58;1679801;81;25843;-84
2021/10/21 00:56:05;;;;;;;16.05;8.13;;;;;;;14.98;63.22;99414.22;1720659;81;26085;-85
2021/10/21 00:58:33;;;;;;;13.10;7.53;;;;;;;14.95;63.23;99417.95;1700301;82;27469;-84
2021/10/21 01:01:01;;;;;;;14.70;7.83;;;;;;;14.93;63.31;99416.81;1735463;82;25847;-84
2021/10/21 01:03:28;;;;;;;11.75;8.38;;;;;;;14.92;63.44;99411.67;1706366;81;25885;-84
2021/10/21 01:05:55;;;;;;;9.95;7.67;;;;;;;14.90;63.38;99400.32;1660084;82;25796;-84
2021/10/21 01:08:23;;;;;;;17.37;8.65;;;;;;;14.87;63.44;99386.79;1737253;82;25783;-84
2021/10/21 01:10:51;;;;;;;12.88;7.75;;;;;;;14.88;63.55;99384.39;1741842;82;27456;-84
2021/10/21 01:13:19;;;;;;;10.90;7.92;;;;;;;14.87;63.53;99379.22;1699488;82;25877;-85
2021/10/21 01:15:46;;;;;;;13.83;7.95;;;;;;;14.85;63.61;99375.95;1662944;83;25966;-84
2021/10/21 01:18:13;;;;;;;12.58;8.18;;;;;;;14.83;63.66;99381.60;1704836;82;25566;-85
2021/10/21 01:20:40;;;;;;;13.68;8.63;;;;;;;14.82;63.72;99375.91;1707193;81;25970;-85
2021/10/21 01:23:07;;;;;;;10.43;8.18;;;;;;;14.81;63.67;99368.90;1737571;81;27511;-84
2021/10/21 01:25:34;;;;;;;12.15;8.23;;;;;;;14.81;63.74;99369.42;1673652;83;25333;-85
2021/10/21 01:28:04;;;;;;;15.30;8.40;;;;;;;14.78;63.79;99364.53;1626714;84;25854;-83
2021/10/21 01:30:32;;;;;;;15.93;9.13;;;;;;;14.76;63.77;99359.89;1708916;82;25810;-85
2021/10/21 01:32:59;;;;;;;14.90;8.43;;;;;;;14.75;63.92;99359.62;1705208;83;25881;-84
2021/10/21 01:35:26;;;;;;;15.32;8.98;;;;;;;14.75;63.93;99355.58;1637956;83;27568;-85
2021/10/21 01:37:53;;;;;;;13.43;7.80;;;;;;;14.74;63.97;99356.62;1677214;84;26015;-84
2021/10/21 01:40:21;;;;;;;14.03;8.40;;;;;;;14.71;64.00;99344.47;1705710;84;25871;-84
2021/10/21 01:42:48;;;;;;;12.88;8.35;;;;;;;14.71;64.01;99345.82;1672451;84;25849;-84
2021/10/21 01:45:24;;;;;;;11.15;9.08;;;;;;;14.69;64.04;99340.66;1703457;84;25789;-84
2021/10/21 01:47:52;;;;;;;11.60;8.00;;;;;;;14.68;64.11;99323.39;1700002;83;28010;-84
2021/10/21 01:50:20;;;;;;;13.18;8.58;;;;;;;14.66;64.15;99318.77;1657110;82;25816;-85
2021/10/21 01:52:48;;;;;;;13.70;8.13;;;;;;;14.65;64.19;99319.81;1660832;85;25834;-84
2021/10/21 01:55:17;;;;;;;15.75;8.55;;;;;;;14.63;64.21;99307.94;1697075;82;26540;-83
2021/10/21 01:57:45;;;;;;;13.62;9.00;;;;;;;14.63;64.27;99300.37;1702597;81;25774;-84
2021/10/21 02:00:16;;;;;;;8.95;7.92;;;;;;;14.62;64.39;99299.59;1649415;82;27537;-84
2021/10/21 02:02:44;;;;;;;15.20;8.88;;;;;;;14.63;64.40;99293.64;1668255;82;26877;-84
2021/10/21 02:05:13;;;;;;;13.78;8.78;;;;;;;14.63;64.46;99295.81;1714940;82;25409;-83
2021/10/21 02:07:41;;;;;;;9.88;7.87;;;;;;;14.63;64.40;99295.81;1663460;84;26311;-84
2021/10/21 02:10:13;;;;;;;10.60;7.30;;;;;;;14.62;64.34;99288.81;1628748;84;25953;-84
2021/10/21 02:12:40;;;;;;;10.48;8.33;;;;;;;14.62;64.37;99290.16;1670110;84;27444;-84
2021/10/21 02:15:08;;;;;;;15.98;9.23;;;;;;;14.58;64.33;99286.29;1694865;82;26020;-84
2021/10/21 02:17:36;;;;;;;11.93;8.10;;;;;;;14.57;64.38;99278.45;1731077;82;25803;-83
2021/10/21 02:20:03;;;;;;;14.60;8.23;;;;;;;14.55;64.37;99277.36;1653082;84;25597;-84
2021/10/21 02:22:30;;;;;;;12.85;8.50;;;;;;;14.54;64.41;99268.98;1693712;82;25783;-84
2021/10/21 02:24:57;;;;;;;10.90;8.08;;;;;;;14.53;64.48;99268.70;1723486;81;27453;-85
2021/10/21 02:27:24;;;;;;;15.28;8.25;;;;;;;14.51;64.51;99270.83;1719017;81;25865;-85
2021/10/21 02:29:51;;;;;;;12.93;9.00;;;;;;;14.49;64.51;99268.09;1647557;82;25883;-84
2021/10/21 02:32:18;;;;;;;10.45;8.08;;;;;;;14.46;64.62;99264.52;1700046;81;25939;-84
2021/10/21 02:34:45;;;;;;;11.40;8.08;;;;;;;14.45;64.66;99261.03;1731827;82;25336;-84
2021/10/21 02:37:12;;;;;;;10.32;8.35;;;;;;;14.45;64.71;99250.26;1731752;81;27346;-85
2021/10/21 02:39:39;;;;;;;10.95;8.38;;;;;;;14.45;64.74;99243.52;1682871;82;25897;-84
2021/10/21 02:42:06;;;;;;;12.50;8.05;;;;;;;14.44;64.75;99242.39;1695945;82;25867;-84
2021/10/21 02:44:33;;;;;;;14.58;8.50;;;;;;;14.43;64.77;99236.73;1722516;82;26194;-84
2021/10/21 02:47:00;;;;;;;14.18;8.10;;;;;;;14.41;64.81;99242.34;1696866;82;26443;-85
2021/10/21 02:49:28;;;;;;;10.05;7.70;;;;;;;14.39;64.90;99232.34;1694806;83;27453;-84
2021/10/21 02:51:55;;;;;;;9.58;7.80;;;;;;;14.40;64.96;99232.66;1662434;83;26523;-85
2021/10/21 02:54:22;;;;;;;10.63;8.13;;;;;;;14.37;64.97;99222.35;1739701;82;25831;-84
2021/10/21 02:56:49;;;;;;;12.65;8.48;;;;;;;14.37;65.03;99223.70;1715513;82;26363;-84
2021/10/21 02:59:16;;;;;;;11.45;8.68;;;;;;;14.39;65.07;99223.48;1668145;82;25759;-84
2021/10/21 03:01:43;;;;;;;13.13;8.20;;;;;;;14.37;65.10;99221.00;1691821;82;27551;-84
2021/10/21 03:04:10;;;;;;;10.80;7.65;;;;;;;14.35;65.12;99217.73;1736778;81;25288;-84
2021/10/21 03:06:37;;;;;;;12.20;7.87;;;;;;;14.35;65.15;99211.56;1715457;82;25778;-86
2021/10/21 03:09:04;;;;;;;9.95;7.85;;;;;;;14.33;65.15;99206.39;1670275;82;25903;-84
2021/10/21 03:11:31;;;;;;;12.18;8.05;;;;;;;14.31;65.20;99197.74;1687249;83;26635;-84
2021/10/21 03:13:58;;;;;;;11.15;8.65;;;;;;;14.30;65.23;99195.30;1706079;82;28293;-84
2021/10/21 03:16:29;;;;;;;14.60;8.30;;;;;;;14.28;65.28;99190.66;1714736;82;26150;-84
2021/10/21 03:18:54;;;;;;;13.13;8.58;;;;;;;14.27;65.34;99184.45;1655874;82;25352;-84
2021/10/21 03:21:21;;;;;;;13.62;7.67;;;;;;;14.25;65.36;99177.15;1676502;82;25629;-83
2021/10/21 03:23:48;;;;;;;9.08;7.90;;;;;;;14.23;65.35;99170.37;1724523;81;25873;-84
2021/10/21 03:26:15;;;;;;;11.33;8.30;;;;;;;14.22;65.39;99156.63;1735828;81;28241;-84
2021/10/21 03:28:42;;;;;;;13.20;8.30;;;;;;;14.19;65.39;99148.51;1686588;81;26438;-84
2021/10/21 03:31:09;;;;;;;9.73;8.40;;;;;;;14.18;65.42;99147.41;1692297;81;26013;-83
2021/10/21 03:33:36;;;;;;;12.40;8.60;;;;;;;14.14;65.52;99161.88;1751743;81;26499;-84
2021/10/21 03:36:03;;;;;;;12.70;8.15;;;;;;;14.11;65.45;99172.33;1722563;81;26586;-84
2021/10/21 03:38:30;;;;;;;12.45;9.45;;;;;;;14.07;65.53;99165.25;1696732;83;27466;-84
2021/10/21 03:40:57;;;;;;;12.07;8.78;;;;;;;14.04;65.60;99168.45;1703047;82;25790;-85
2021/10/21 03:43:24;;;;;;;11.73;9.10;;;;;;;14.03;65.68;99166.80;1737530;82;26063;-84
2021/10/21 03:45:52;;;;;;;15.38;8.98;;;;;;;14.02;65.78;99167.05;1698022;82;25916;-84
2021/10/21 03:48:19;;;;;;;12.43;8.48;;;;;;;14.00;65.85;99161.09;1756229;80;25978;-84
2021/10/21 03:50:46;;;;;;;15.32;9.03;;;;;;;13.99;65.97;99144.64;1693556;82;27466;-84
2021/10/21 03:53:13;;;;;;;15.35;9.38;;;;;;;14.00;65.99;99148.98;1715720;81;26638;-84
2021/10/21 03:55:41;;;;;;;13.22;9.08;;;;;;;13.99;66.04;99151.38;1695797;81;25893;-84
2021/10/21 03:58:09;;;;;;;10.53;8.28;;;;;;;13.97;66.07;99146.77;1668238;81;25902;-84
2021/10/21 04:00:36;;;;;;;15.18;9.05;;;;;;;13.95;66.13;99138.94;1719913;81;25811;-84
2021/10/21 04:03:04;;;;;;;12.10;9.15;;;;;;;13.96;66.17;99125.78;1755861;81;28063;-84
2021/10/21 04:05:31;;;;;;;13.30;10.15;;;;;;;13.97;66.16;99119.33;1734071;81;25908;-85
2021/10/21 04:07:58;;;;;;;12.88;8.80;;;;;;;13.97;66.24;99117.16;1655125;83;25906;-85
2021/10/21 04:10:25;;;;;;;14.78;10.50;;;;;;;13.95;66.31;99112.02;1732842;80;26615;-84
2021/10/21 04:12:52;;;;;;;15.03;10.30;;;;;;;13.97;66.36;99119.84;1783986;79;25303;-84
2021/10/21 04:15:24;;;;;;;14.43;9.80;;;;;;;13.95;66.38;99124.14;1755014;80;27540;-84
2021/10/21 04:17:48;;;;;;;12.80;9.35;;;;;;;13.94;66.44;99129.25;1729361;80;25754;-84
2021/10/21 04:20:15;;;;;;;15.93;10.18;;;;;;;13.91;66.55;99126.52;1727651;80;25860;-84
2021/10/21 04:22:42;;;;;;;14.55;8.95;;;;;;;13.92;66.55;99126.78;1786511;80;25828;-84
2021/10/21 04:25:09;;;;;;;12.03;9.20;;;;;;;13.93;66.61;99128.95;1719956;82;26039;-85
2021/10/21 04:27:36;;;;;;;11.83;8.95;;;;;;;13.91;66.65;99122.47;1668241;84;27517;-84
2021/10/21 04:30:05;;;;;;;12.95;9.48;;;;;;;13.91;66.70;99117.09;1650513;85;25867;-84
2021/10/21 04:32:32;;;;;;;12.30;8.90;;;;;;;13.89;66.73;99109.79;1673242;84;25406;-84
2021/10/21 04:35:00;;;;;;;19.80;10.72;;;;;;;13.89;66.80;99103.06;1680147;83;26010;-84
2021/10/21 04:37:27;;;;;;;16.17;9.65;;;;;;;13.90;66.78;99101.98;1713424;83;25884;-84
2021/10/21 04:39:54;;;;;;;15.40;9.73;;;;;;;13.89;66.85;99103.59;1659223;83;27645;-85
2021/10/21 04:42:21;;;;;;;15.90;10.23;;;;;;;13.88;66.88;99093.86;1709825;83;26329;-84
2021/10/21 04:44:49;;;;;;;13.55;9.55;;;;;;;13.86;66.94;99091.95;1713453;83;25786;-84
2021/10/21 04:47:16;;;;;;;16.42;10.28;;;;;;;13.87;67.02;99098.45;1660669;84;26216;-84
2021/10/21 04:49:44;;;;;;;13.78;9.68;;;;;;;13.85;67.11;99099.23;1663957;84;25345;-84
2021/10/21 04:52:12;;;;;;;14.68;10.32;;;;;;;13.85;67.20;99083.08;1664488;84;27384;-85
2021/10/21 04:54:39;;;;;;;14.83;10.40;;;;;;;13.84;67.23;99088.16;1704657;83;25903;-85
2021/10/21 04:57:06;;;;;;;17.87;10.13;;;;;;;13.84;67.22;99086.00;1709106;82;25324;-83
2021/10/21 04:59:33;;;;;;;13.45;9.50;;;;;;;13.83;67.25;99077.13;1662338;83;25802;-83
2021/10/21 05:02:00;;;;;;;14.98;10.93;;;;;;;13.82;67.26;99067.93;1627813;85;25911;-84
2021/10/21 05:04:27;;;;;;;16.87;9.35;;;;;;;13.82;67.30;99053.12;1696136;84;27509;-83
2021/10/21 05:06:54;;;;;;;11.50;9.85;;;;;;;13.82;67.39;99041.02;1672661;84;26690;-84
2021/10/21 05:09:21;;;;;;;14.98;9.88;;;;;;;13.83;67.37;99034.06;1669301;84;25750;-83
2021/10/21 05:11:48;;;;;;;15.23;9.63;;;;;;;13.83;67.36;99030.03;1680518;83;25814;-84
2021/10/21 05:14:15;;;;;;;13.85;10.00;;;;;;;13.84;67.36;99022.74;1667551;84;26500;-84
2021/10/21 05:16:42;;;;;;;14.45;10.03;;;;;;;13.83;67.36;99017.92;1697152;84;28685;-84
2021/10/21 05:19:09;;;;;;;16.65;10.48;;;;;;;13.85;67.39;99021.70;1652186;84;25370;-84
2021/10/21 05:21:36;;;;;;;14.20;10.20;;;;;;;13.85;67.40;99019.83;1648906;84;25795;-84
2021/10/21 05:24:05;;;;;;;18.15;10.00;;;;;;;13.85;67.42;99013.62;1705659;82;26644;-84
2021/10/21 05:26:32;;;;;;;14.25;9.88;;;;;;;13.86;67.48;99012.55;1713752;82;25797;-84
2021/10/21 05:28:59;;;;;;;15.45;10.20;;;;;;;13.86;67.48;99013.38;1695531;82;27462;-84
2021/10/21 05:31:26;;;;;;;14.50;9.50;;;;;;;13.88;67.58;99009.90;1658000;82;25865;-84
2021/10/21 05:33:53;;;;;;;15.23;9.85;;;;;;;13.90;67.54;99005.08;1669107;84;25983;-84
2021/10/21 05:36:20;;;;;;;14.65;10.23;;;;;;;13.92;67.58;99009.69;1718068;82;26356;-84
2021/10/21 05:38:48;;;;;;;12.05;10.10;;;;;;;13.94;67.52;98996.80;1657383;83;25804;-84
2021/10/21 05:41:15;;;;;;;14.45;9.93;;;;;;;13.97;67.48;98994.67;1676277;82;27566;-84
2021/10/21 05:43:43;;;;;;;16.77;10.32;;;;;;;13.98;67.45;98994.97;1713748;82;26164;-84
2021/10/21 05:46:10;;;;;;;14.70;9.83;;;;;;;14.00;67.39;98990.15;1728868;82;25991;-84
2021/10/21 05:48:36;;;;;;;14.85;10.35;;;;;;;14.01;67.34;98993.93;1697472;82;26186;-84
2021/10/21 05:51:03;;;;;;;15.18;10.08;;;;;;;14.02;67.31;98994.75;1682651;82;25871;-84
2021/10/21 05:53:30;;;;;;;15.55;10.48;;;;;;;14.03;67.26;98982.38;1719268;82;27599;-84
2021/10/21 05:55:58;;;;;;;14.45;9.88;;;;;;;14.05;67.29;98983.50;1730936;82;25910;-85
2021/10/21 05:58:25;;;;;;;13.78;10.38;;;;;;;14.05;67.24;98988.33;1656709;82;25921;-84
2021/10/21 06:00:53;;;;;;;14.23;10.98;;;;;;;14.06;67.24;98994.02;1693623;82;25881;-83
2021/10/21 06:03:20;;;;;;;16.65;10.38;;;;;;;14.06;67.55;98985.94;1702449;84;26811;-83
2021/10/21 06:05:47;;;;;;;14.28;10.55;;;;;;;14.05;67.85;98982.94;1728617;81;27402;-85
2021/10/21 06:08:14;;;;;;;13.85;10.70;;;;;;;14.04;67.86;98976.47;1666168;84;25845;-84
2021/10/21 06:10:41;;;;;;;17.32;10.80;;;;;;;14.03;67.84;98979.69;1613494;84;25923;-84
2021/10/21 06:13:08;;;;;;;18.30;12.65;;;;;;;14.03;67.93;98973.52;1755283;80;26185;-84
2021/10/21 06:15:35;;;;;;;22.73;12.85;;;;;;;14.02;68.12;98970.52;1761908;80;25790;-84
2021/10/21 06:18:04;;;;;;;40.55;20.95;;;;;;;14.01;68.10;98985.06;1676599;83;27480;-84
2021/10/21 06:20:31;;;;;;;30.20;17.12;;;;;;;14.01;68.15;99001.22;1702580;82;25884;-84
2021/10/21 06:22:58;;;;;;;23.45;15.15;;;;;;;14.01;68.02;98997.17;1720841;82;25903;-85
2021/10/21 06:25:25;;;;;;;26.90;14.87;;;;;;;14.03;67.96;99000.44;1685396;84;25841;-84
2021/10/21 06:27:52;;;;;;;15.23;12.37;;;;;;;14.04;68.04;99001.52;1686341;84;25859;-84
2021/10/21 06:30:20;;;;;;;23.07;14.00;;;;;;;14.05;68.07;98996.41;1697335;82;27513;-84
2021/10/21 06:32:47;;;;;;;15.93;11.63;;;;;;;14.06;68.10;98998.58;1712845;82;25924;-83
2021/10/21 06:35:15;;;;;;;18.25;12.30;;;;;;;14.05;68.22;98978.91;1740547;81;25834;-84
2021/10/21 06:37:49;;;;;;;22.85;13.38;;;;;;;14.06;68.75;98981.08;1684267;81;26249;-83
2021/10/21 06:40:16;;;;;;;20.52;11.90;;;;;;;14.05;69.21;98977.56;1667166;81;25906;-83
2021/10/21 06:42:44;;;;;;;19.80;13.78;;;;;;;13.99;70.71;99005.48;1741546;81;28226;-84
2021/10/21 06:45:12;;;;;;;22.22;15.72;;;;;;;13.87;71.43;99029.00;1734193;81;25835;-85
2021/10/21 06:47:40;;;;;;;19.85;14.20;;;;;;;13.75;73.24;99032.31;1716148;81;25815;-84
2021/10/21 06:50:09;;;;;;;19.05;15.25;;;;;;;13.61;73.67;99020.23;1742247;80;25727;-82
2021/10/21 06:52:42;;;;;;;20.35;12.93;;;;;;;13.51;74.69;99031.66;1747532;81;25746;-83
2021/10/21 06:55:09;;;;;;;14.83;12.53;;;;;;;13.42;74.76;99024.21;1744740;81;27528;-83
2021/10/21 06:57:46;;;;;;;20.85;13.18;;;;;;;13.36;76.22;99021.98;1704965;80;25870;-84
2021/10/21 07:00:14;;;;;;;18.57;14.05;;;;;;;13.28;76.99;99021.00;1684904;84;26124;-83
2021/10/21 07:02:42;;;;;;;21.42;14.47;;;;;;;13.23;77.12;99014.21;1706040;83;25844;-83
2021/10/21 07:05:12;;;;;;;15.45;12.63;;;;;;;13.17;77.64;99014.36;1705884;83;26513;-84
2021/10/21 07:07:40;;;;;;;19.23;13.50;;;;;;;13.13;78.01;99014.01;1683328;83;27502;-84
2021/10/21 07:10:09;;;;;;;18.52;14.43;;;;;;;13.09;78.30;99012.86;1683512;82;25596;-83
2021/10/21 07:12:38;;;;;;;18.15;12.78;;;;;;;13.06;78.43;99011.50;1742666;81;25340;-84
2021/10/21 07:15:07;;;;;;;18.95;13.68;;;;;;;13.05;79.07;98999.09;1747340;81;25538;-83
2021/10/21 07:17:35;;;;;;;19.90;14.05;;;;;;;13.04;79.95;98993.42;1663289;83;26422;-82
2021/10/21 07:20:05;;;;;;;21.12;13.80;;;;;;;13.03;80.29;98996.33;1675205;82;47147;-83
2021/10/21 07:22:32;;;;;;;18.32;12.73;;;;;;;13.03;80.74;98997.15;1724501;80;25963;-84
2021/10/21 07:24:59;;;;;;;16.07;12.55;;;;;;;13.03;81.01;98986.92;1777504;79;25843;-83
2021/10/21 07:27:27;;;;;;;17.40;13.60;;;;;;;13.03;81.41;98993.12;1683542;83;26263;-84
2021/10/21 07:29:54;;;;;;;17.57;13.32;;;;;;;13.01;81.09;98966.19;1665426;84;25828;-83
2021/10/21 07:32:21;;;;;;;19.95;14.38;;;;;;;13.02;81.16;98962.45;1673913;83;27600;-83
2021/10/21 07:34:48;;;;;;;22.22;14.07;;;;;;;13.02;81.20;98963.80;1719877;82;25786;-83
2021/10/21 07:37:15;;;;;;;15.23;13.05;;;;;;;13.02;81.27;98955.73;1703644;82;25919;-84
2021/10/21 07:39:42;;;;;;;18.02;14.33;;;;;;;13.00;81.49;98980.15;1672649;84;26820;-84
2021/10/21 07:42:12;;;;;;;20.85;14.95;;;;;;;13.00;81.73;98980.70;1746124;81;25855;-85
2021/10/21 07:44:41;;;;;;;17.75;13.40;;;;;;;12.99;82.57;98989.81;1695711;82;27556;-84
2021/10/21 07:47:08;;;;;;;19.87;15.23;;;;;;;12.96;82.29;98967.43;1676691;82;25720;-84
2021/10/21 07:49:35;;;;;;;18.17;14.60;;;;;;;12.95;82.25;98976.05;1677873;85;25851;-84
2021/10/21 07:52:04;;;;;;;19.05;13.93;;;;;;;12.96;82.37;98967.43;1661250;84;25821;-85
2021/10/21 07:54:32;;;;;;;18.23;14.45;;;;;;;12.97;82.52;98971.24;1722546;82;25819;-84
2021/10/21 07:57:04;;;;;;;16.10;14.10;;;;;;;12.97;82.65;98975.80;1660152;84;27625;-85
2021/10/21 07:59:36;;;;;;;19.02;13.25;;;;;;;12.97;82.79;98986.55;1650497;82;25385;-83
2021/10/21 08:02:03;;;;;;;23.57;16.27;;;;;;;12.98;83.04;98986.30;1642135;85;25895;-84
2021/10/21 08:04:34;;;;;;;20.48;14.30;;;;;;;12.99;82.84;98975.02;1678426;84;25729;-85
2021/10/21 08:07:03;;;;;;;17.37;14.40;;;;;;;12.99;82.90;98965.09;1733067;82;25928;-84
2021/10/21 08:09:31;;;;;;;21.10;14.03;;;;;;;13.01;83.10;98967.53;1656117;82;27197;-83
2021/10/21 08:12:00;;;;;;;20.30;14.70;;;;;;;13.02;82.93;98975.90;1706048;82;25923;-84
2021/10/21 08:14:28;;;;;;;19.65;15.10;;;;;;;13.03;83.33;98976.99;1678986;84;25813;-85
2021/10/21 08:16:57;;;;;;;20.80;16.10;;;;;;;13.03;83.09;98983.71;1716876;82;26138;-84
2021/10/21 08:19:29;;;;;;;17.10;14.43;;;;;;;13.03;83.28;98970.27;1666803;82;25951;-85
2021/10/21 08:21:57;;;;;;;17.95;13.28;;;;;;;13.05;83.31;98972.22;1673738;83;28188;-84
2021/10/21 08:24:24;;;;;;;19.17;14.95;;;;;;;13.06;83.80;98961.77;1677246;83;25771;-85
2021/10/21 08:26:56;;;;;;;22.17;15.53;;;;;;;13.05;83.79;98951.23;1682204;82;25393;-84
2021/10/21 08:29:24;;;;;;;24.12;15.65;;;;;;;13.06;83.67;98925.48;1647698;82;26309;-84
2021/10/21 08:32:02;;;;;;;19.57;14.63;;;;;;;13.08;84.08;98914.48;1635457;84;25865;-85
2021/10/21 08:34:24;;;;;;;18.90;15.15;;;;;;;13.10;84.00;98916.39;1713567;82;27540;-85
2021/10/21 08:36:51;;;;;;;22.70;15.13;;;;;;;13.12;84.25;98920.98;1700607;82;25822;-85
2021/10/21 08:39:18;;;;;;;20.90;14.95;;;;;;;13.13;84.79;98923.95;1659799;84;25928;-85
2021/10/21 08:41:48;;;;;;;23.60;15.45;;;;;;;13.12;84.31;98909.72;1673770;82;26221;-84
2021/10/21 08:44:16;;;;;;;19.73;15.60;;;;;;;13.15;84.59;98893.63;1670941;84;25941;-84
2021/10/21 08:46:51;;;;;;;24.12;15.40;;;;;;;13.15;84.60;98880.19;1705616;83;27587;-84
2021/10/21 08:49:19;;;;;;;21.15;16.17;;;;;;;13.15;84.38;98885.56;1625607;84;26035;-85
2021/10/21 08:51:47;;;;;;;24.57;15.88;;;;;;;13.15;84.43;98878.84;1648047;84;25627;-84
2021/10/21 08:54:14;;;;;;;24.72;16.48;;;;;;;13.16;84.66;98891.21;1699312;84;25809;-83
2021/10/21 08:56:41;;;;;;;19.23;15.88;;;;;;;13.17;84.47;98902.78;1699959;84;25305;-84
2021/10/21 08:59:08;;;;;;;23.65;16.30;;;;;;;13.17;84.36;98892.03;1625526;84;27524;-86
2021/10/21 09:01:39;;;;;;;23.87;17.82;;;;;;;13.17;84.51;98855.22;1635919;84;26128;-84
2021/10/21 09:09:27;;;;;;;22.00;17.62;;;;;;;13.16;84.76;98810.56;1658421;82;26541;-83
2021/10/21 09:12:11;;;;;;;25.68;18.00;;;;;;;13.17;84.79;98819.45;1701269;82;28121;-84
2021/10/21 09:14:43;;;;;;;23.10;17.62;;;;;;;13.18;84.77;98829.13;1697014;81;25860;-84
2021/10/21 09:17:13;;;;;;;23.75;18.10;;;;;;;13.18;84.94;98841.22;1727116;81;25818;-84
2021/10/21 09:19:41;;;;;;;25.02;17.90;;;;;;;13.18;84.93;98845.25;1635982;82;25467;-83
2021/10/21 09:22:28;;;;;;;27.60;18.70;;;;;;;13.20;84.89;98839.10;1672666;82;25452;-82
2021/10/21 09:25:00;;;;;;;27.90;18.52;;;;;;;13.22;84.62;98838.32;1698446;82;27622;-84
2021/10/21 09:27:29;;;;;;;26.20;18.17;;;;;;;13.24;84.87;98812.82;1725093;82;26181;-83
2021/10/21 09:29:57;;;;;;;22.27;16.67;;;;;;;13.28;84.92;98808.58;1654843;84;25896;-83
2021/10/21 09:32:28;;;;;;;21.60;17.05;;;;;;;13.32;85.04;98792.26;1646627;83;25910;-83
2021/10/21 09:35:02;;;;;;;23.70;15.93;;;;;;;13.37;84.91;98789.62;1699403;82;25903;-84
2021/10/21 09:37:42;;;;;;;25.25;16.93;;;;;;;13.44;84.99;98802.88;1730300;82;28635;-84
2021/10/21 09:40:21;;;;;;;24.35;16.45;;;;;;;13.52;85.03;98801.10;1646503;84;25881;-84
2021/10/21 09:42:58;;;;;;;19.80;15.98;;;;;;;13.59;84.81;98797.19;1720296;81;25876;-84
2021/10/21 09:45:29;;;;;;;19.92;15.35;;;;;;;13.68;84.47;98791.66;1733457;81;25927;-84
2021/10/21 09:47:58;;;;;;;21.85;15.88;;;;;;;13.74;84.19;98777.20;1671926;82;26013;-84
2021/10/21 09:50:45;;;;;;;21.07;16.27;;;;;;;13.79;83.93;98780.48;1656803;82;27600;-83
2021/10/21 09:53:31;;;;;;;22.70;16.23;;;;;;;13.83;83.71;98774.87;1727317;82;25804;-83
2021/10/21 09:56:08;;;;;;;22.15;15.05;;;;;;;13.87;83.64;98769.27;1687391;82;25965;-84
2021/10/21 09:58:39;;;;;;;26.05;15.43;;;;;;;13.89;83.29;98760.41;1706973;82;26406;-83
2021/10/21 10:01:17;;;;;;;18.92;15.30;;;;;;;13.93;83.22;98756.95;1664510;82;26603;-84
2021/10/21 10:03:47;;;;;;;20.90;15.55;;;;;;;13.97;83.14;98747.83;1681322;82;27625;-83
2021/10/21 10:06:16;;;;;;;18.55;14.23;;;;;;;14.02;83.13;98756.50;1686562;82;25794;-84
2021/10/21 10:08:46;;;;;;;21.97;16.95;;;;;;;14.06;83.08;98766.52;1714875;82;25807;-83
2021/10/21 10:11:23;;;;;;;21.90;15.55;;;;;;;14.10;83.06;98778.39;1649466;82;25861;-84
2021/10/21 10:13:46;;;;;;;21.20;16.12;;;;;;;14.14;82.97;98750.42;1672333;82;25919;-84
2021/10/21 10:16:14;;;;;;;21.20;15.93;;;;;;;14.17;82.93;98748.05;1683258;84;27513;-83
2021/10/21 10:18:44;;;;;;;22.55;15.58;;;;;;;14.20;82.80;98743.48;1708441;82;25413;-84
2021/10/21 10:21:33;;;;;;;19.73;15.98;;;;;;;14.24;82.66;98712.28;1642637;82;25939;-83
2021/10/21 10:24:06;;;;;;;22.32;15.95;;;;;;;14.28;82.77;98704.52;1700196;82;25820;-84
2021/10/21 10:26:56;;;;;;;24.32;16.93;;;;;;;14.34;82.72;98715.12;1693793;82;25985;-83
2021/10/21 10:29:41;;;;;;;20.05;14.83;;;;;;;14.41;82.71;98707.61;1735341;81;27550;-84
2021/10/21 10:32:30;;;;;;;19.10;15.05;;;;;;;14.47;82.42;98690.45;1679265;83;25967;-84
2021/10/21 10:34:58;;;;;;;20.57;14.58;;;;;;;14.52;82.24;98692.38;1727086;82;25929;-83
2021/10/21 10:37:30;;;;;;;23.32;15.53;;;;;;;14.56;82.05;98684.83;1632139;83;25974;-84
2021/10/21 10:40:00;;;;;;;22.48;15.90;;;;;;;14.61;82.08;98684.06;1710036;82;25772;-85
2021/10/21 10:42:37;;;;;;;19.95;14.45;;;;;;;14.66;82.12;98684.11;1683484;83;27555;-84
2021/10/21 10:45:08;;;;;;;19.62;13.75;;;;;;;14.71;81.69;98672.02;1735329;81;26291;-85
2021/10/21 10:47:54;;;;;;;20.50;15.25;;;;;;;14.74;81.51;98660.70;1705630;82;25904;-83
2021/10/21 10:50:30;;;;;;;22.40;16.17;;;;;;;14.76;81.37;98648.30;1684843;83;25928;-84
2021/10/21 10:53:06;;;;;;;23.80;17.25;;;;;;;14.79;81.07;98645.11;1667597;83;25924;-84
2021/10/21 10:55:47;;;;;;;19.20;15.03;;;;;;;14.79;81.04;98628.41;1667790;82;27614;-85
2021/10/21 10:58:17;;;;;;;19.62;15.48;;;;;;;14.79;80.59;98621.66;1670154;83;25941;-83
2021/10/21 11:00:48;;;;;;;;;;;;;;;14.79;80.34;98612.23;1689099;82;26311;-84
2021/10/21 11:03:36;;;;;;;16.82;13.38;;;;;;;14.79;80.08;98629.75;1733664;80;26209;-83
2021/10/21 11:06:16;;;;;;;19.10;14.53;;;;;;;14.78;80.18;98618.68;1684741;83;26390;-83
2021/10/21 11:09:04;;;;;;;20.70;14.78;;;;;;;14.79;80.03;98629.75;1699851;83;27540;-83
2021/10/21 11:11:55;;;;;;;19.90;15.13;;;;;;;14.79;79.66;98636.48;1674302;83;26563;-84
2021/10/21 11:14:37;;;;;;;18.25;14.25;;;;;;;14.81;79.89;98639.73;1668696;84;25893;-84
2021/10/21 11:17:05;;;;;;;17.52;12.93;;;;;;;14.82;79.67;98635.16;1655515;83;25912;-83
2021/10/21 11:19:45;;;;;;;19.48;14.30;;;;;;;14.82;79.43;98644.03;1707639;83;25843;-84
2021/10/21 11:22:24;;;;;;;15.78;13.58;;;;;;;14.83;79.32;98605.23;1711592;82;28283;-84
2021/10/21 11:24:57;;;;;;;20.45;13.72;;;;;;;14.85;79.33;98598.23;1674714;83;26441;-83
2021/10/21 11:27:43;;;;;;;16.70;12.93;;;;;;;14.86;79.34;98593.95;1730651;82;25834;-84
2021/10/21 11:30:24;;;;;;;20.32;13.58;;;;;;;14.89;79.23;98583.97;1672120;85;26143;-83
2021/10/21 11:32:53;;;;;;;;;;;;;;;14.94;79.16;98585.88;1688791;83;25963;-84
2021/10/21 11:35:23;;;;;;;14.87;12.75;;;;;;;14.96;79.16;98579.16;1720087;82;27577;-84
2021/10/21 11:37:57;;;;;;;14.40;12.00;;;;;;;14.99;79.06;98574.56;1740027;81;25811;-84